Time;durP1;ratioP1;P1;durP2;ratioP2;P2;SDS_P1;SDS_P2;PMS_P1;PMS_P2;Temp;Humidity;BMP_temperature;BMP_pressure;BME280_temperature;BME280_humidity;BME280_pressure;Samples;Min_cycle;Max_cycle;Signal;HPM_P1;HPM_P2
2020/12/14 09:46:13;;;;;;;8.23;2.63;;;11.40;99.90;;;;;;5101155;27;20368;-79
2020/12/14 09:48:40;;;;;;;10.65;2.80;;;11.70;99.90;;;;;;5078396;28;20028;-81
2020/12/14 09:51:06;;;;;;;11.15;2.85;;;11.90;99.90;;;;;;5083416;28;20025;-81
2020/12/14 09:53:33;;;;;;;8.73;2.40;;;12.10;99.90;;;;;;5083028;28;20024;-81
2020/12/14 09:55:59;;;;;;;9.82;2.92;;;12.30;99.90;;;;;;5080470;28;20023;-79
2020/12/14 09:58:24;;;;;;;7.35;2.60;;;12.40;99.90;;;;;;5085179;28;20391;-81
2020/12/14 10:00:50;;;;;;;6.32;3.03;;;12.50;99.90;;;;;;5085409;28;20029;-82
2020/12/14 10:03:15;;;;;;;7.57;2.42;;;12.60;99.90;;;;;;5085538;28;20016;-81
2020/12/14 10:05:47;;;;;;;8.27;2.45;;;12.70;99.90;;;;;;5084175;28;20027;-82
2020/12/14 10:08:14;;;;;;;5.57;2.47;;;12.80;99.90;;;;;;5083563;28;20081;-82
2020/12/14 10:10:39;;;;;;;5.80;2.05;;;12.90;99.90;;;;;;5096625;28;20455;-82
2020/12/14 10:13:05;;;;;;;6.15;2.25;;;12.90;99.90;;;;;;5085021;28;20063;-81
2020/12/14 10:15:32;;;;;;;7.15;2.78;;;12.90;99.90;;;;;;5083573;28;20522;-81
2020/12/14 10:17:57;;;;;;;9.52;2.65;;;13.00;99.90;;;;;;5084783;28;20021;-81
2020/12/14 10:20:23;;;;;;;12.15;3.00;;;13.00;99.90;;;;;;5085863;28;20027;-80
2020/12/14 10:22:49;;;;;;;7.85;2.92;;;13.00;99.90;;;;;;5080873;28;20399;-81
2020/12/14 10:25:14;;;;;;;7.70;3.08;;;13.10;99.90;;;;;;5083353;28;20495;-82
2020/12/14 10:27:40;;;;;;;10.57;3.28;;;13.10;99.90;;;;;;5081635;28;20517;-81
2020/12/14 10:30:06;;;;;;;10.32;3.03;;;13.20;99.90;;;;;;5079931;28;20564;-81
2020/12/14 10:32:31;;;;;;;10.43;2.95;;;13.20;99.90;;;;;;5083260;28;20024;-80
2020/12/14 10:34:57;;;;;;;9.25;3.10;;;13.20;99.90;;;;;;5081684;28;20016;-76
2020/12/14 10:37:23;;;;;;;10.50;3.65;;;13.20;99.90;;;;;;5081404;28;20057;-76
2020/12/14 10:39:48;;;;;;;6.38;2.90;;;13.30;99.90;;;;;;5080260;28;20506;-75
2020/12/14 10:42:14;;;;;;;7.07;2.80;;;13.30;99.90;;;;;;5081023;28;20534;-76
2020/12/14 10:44:41;;;;;;;13.13;3.40;;;13.30;99.90;;;;;;5078732;28;20045;-75
2020/12/14 10:47:07;;;;;;;7.18;3.08;;;13.40;99.90;;;;;;5079731;28;20063;-75
2020/12/14 10:49:33;;;;;;;10.52;3.58;;;13.40;99.90;;;;;;5097494;28;20102;-76
2020/12/14 10:52:01;;;;;;;5.43;2.70;;;13.50;99.90;;;;;;5078740;28;20039;-75
2020/12/14 10:54:27;;;;;;;10.48;3.58;;;13.50;99.90;;;;;;5081156;28;20119;-75
2020/12/14 10:56:53;;;;;;;10.95;3.40;;;13.40;99.90;;;;;;5070306;28;20111;-77
2020/12/14 10:59:18;;;;;;;10.15;4.00;;;13.40;99.90;;;;;;5067447;28;20039;-75
2020/12/14 11:01:54;;;;;;;11.00;3.35;;;13.40;99.90;;;;;;5065335;28;20051;-78
2020/12/14 11:04:21;;;;;;;7.63;3.22;;;13.40;99.90;;;;;;5079250;28;20481;-77
2020/12/14 11:06:47;;;;;;;8.32;3.03;;;13.40;99.90;;;;;;5069311;28;20123;-76
2020/12/14 11:09:13;;;;;;;6.95;2.90;;;13.50;99.90;;;;;;5066793;28;20510;-78
2020/12/14 11:11:38;;;;;;;10.20;3.67;;;13.50;99.90;;;;;;5065572;28;20115;-76
2020/12/14 11:14:04;;;;;;;11.32;3.42;;;13.60;99.90;;;;;;5066435;28;20056;-76
2020/12/14 11:16:31;;;;;;;9.50;3.13;;;13.50;99.90;;;;;;5069228;28;20159;-75
2020/12/14 11:18:58;;;;;;;10.25;3.22;;;13.60;99.90;;;;;;5067403;28;20028;-75
2020/12/14 11:21:25;;;;;;;8.30;3.25;;;13.30;99.90;;;;;;5065536;28;20078;-75
2020/12/14 11:23:50;;;;;;;10.35;3.60;;;13.40;99.90;;;;;;5066848;28;20020;-77
2020/12/14 11:26:16;;;;;;;12.13;3.50;;;13.50;99.90;;;;;;5067088;28;20029;-76
2020/12/14 11:28:42;;;;;;;15.52;3.25;;;13.60;99.90;;;;;;5070137;28;20050;-75
2020/12/14 11:31:08;;;;;;;11.10;3.10;;;13.60;99.90;;;;;;5064182;28;20032;-75
2020/12/14 11:33:35;;;;;;;8.43;2.97;;;13.60;99.90;;;;;;5068798;28;20044;-78
2020/12/14 11:36:02;;;;;;;7.78;2.83;;;13.60;99.90;;;;;;5067988;28;20044;-75
2020/12/14 11:38:30;;;;;;;10.57;3.13;;;13.70;99.90;;;;;;5067378;28;20056;-76
2020/12/14 11:40:59;;;;;;;10.65;2.50;;;13.70;99.90;;;;;;5064875;28;20040;-75
2020/12/14 11:43:25;;;;;;;6.47;2.50;;;13.60;99.90;;;;;;5060068;28;20024;-75
2020/12/14 11:45:51;;;;;;;6.38;2.85;;;13.70;99.90;;;;;;5063690;28;20075;-75
2020/12/14 11:48:18;;;;;;;5.97;2.50;;;13.70;99.90;;;;;;5058359;28;20024;-75
2020/12/14 11:50:43;;;;;;;5.97;2.70;;;13.80;99.90;;;;;;5061640;28;20037;-75
2020/12/14 11:53:09;;;;;;;7.75;2.58;;;13.80;99.90;;;;;;5059627;28;20032;-75
2020/12/14 11:55:39;;;;;;;7.18;2.42;;;13.80;99.90;;;;;;5061296;28;20028;-76
2020/12/14 11:58:05;;;;;;;6.50;2.53;;;13.90;99.90;;;;;;5063565;28;20024;-75
2020/12/14 12:00:31;;;;;;;8.50;2.42;;;14.00;99.90;;;;;;5061917;28;20045;-75
2020/12/14 12:02:57;;;;;;;10.38;2.42;;;14.00;99.90;;;;;;5061882;28;20511;-75
2020/12/14 12:05:23;;;;;;;7.80;2.53;;;14.10;99.90;;;;;;5061479;28;20043;-76
2020/12/14 12:07:48;;;;;;;10.15;3.22;;;14.10;99.90;;;;;;5066215;28;20608;-75
2020/12/14 12:10:14;;;;;;;12.60;2.95;;;14.10;99.90;;;;;;5067788;28;20026;-75
2020/12/14 12:12:40;;;;;;;13.98;2.88;;;14.10;99.90;;;;;;5054732;28;20029;-76
2020/12/14 12:15:06;;;;;;;12.77;3.35;;;14.20;99.90;;;;;;5058681;28;20125;-76
2020/12/14 12:17:32;;;;;;;6.40;2.80;;;14.10;99.90;;;;;;5056516;28;20040;-75
2020/12/14 12:19:58;;;;;;;8.60;2.80;;;14.20;99.90;;;;;;5055181;28;20074;-76
2020/12/14 12:22:26;;;;;;;6.72;2.45;;;14.20;99.90;;;;;;5056443;28;20029;-74
2020/12/14 12:24:51;;;;;;;3.97;2.20;;;14.20;99.90;;;;;;5057558;28;20097;-76
2020/12/14 12:27:17;;;;;;;9.73;2.80;;;14.20;99.90;;;;;;5054858;28;20496;-75
2020/12/14 12:29:43;;;;;;;6.65;2.63;;;14.20;99.90;;;;;;5066973;28;20059;-75
2020/12/14 12:32:08;;;;;;;10.07;2.50;;;14.30;99.90;;;;;;5057091;28;20024;-75
2020/12/14 12:34:34;;;;;;;8.25;2.50;;;14.30;99.90;;;;;;5055167;28;20087;-76
2020/12/14 12:37:02;;;;;;;9.48;2.58;;;14.10;99.90;;;;;;5055754;28;20067;-75
2020/12/14 12:39:28;;;;;;;7.95;2.63;;;14.20;99.90;;;;;;5069683;28;20123;-75
2020/12/14 12:41:54;;;;;;;8.15;2.58;;;14.20;99.90;;;;;;5051728;28;20151;-75
2020/12/14 12:44:21;;;;;;;8.38;2.80;;;14.20;99.90;;;;;;5054346;28;20048;-74
2020/12/14 12:46:47;;;;;;;9.45;4.28;;;14.20;99.90;;;;;;5058011;28;20040;-75
2020/12/14 12:49:13;;;;;;;11.73;3.13;;;14.30;99.90;;;;;;5052833;28;20384;-75
2020/12/14 12:51:44;;;;;;;8.20;3.35;;;14.20;99.90;;;;;;5051409;28;20021;-75
2020/12/14 12:54:10;;;;;;;6.72;3.40;;;14.30;99.90;;;;;;5054547;28;20025;-76
2020/12/14 12:56:35;;;;;;;10.02;2.97;;;14.30;99.90;;;;;;5051488;28;20726;-76
2020/12/14 12:59:01;;;;;;;9.73;2.83;;;14.30;99.90;;;;;;5048369;28;20024;-76
2020/12/14 13:01:27;;;;;;;5.60;2.42;;;14.20;99.90;;;;;;5053699;28;20037;-77
2020/12/14 13:03:52;;;;;;;8.07;3.15;;;14.20;99.90;;;;;;5053024;28;20028;-76
2020/12/14 13:06:18;;;;;;;15.70;3.95;;;14.30;99.90;;;;;;5053014;28;20570;-77
2020/12/14 13:08:44;;;;;;;8.98;2.75;;;14.30;99.90;;;;;;5053361;28;20211;-76
2020/12/14 13:11:09;;;;;;;10.52;3.42;;;14.30;99.90;;;;;;5049440;28;20033;-76
2020/12/14 13:13:35;;;;;;;8.15;3.03;;;14.30;99.90;;;;;;5052119;28;20048;-76
2020/12/14 13:16:01;;;;;;;7.85;3.13;;;14.30;99.90;;;;;;5052319;28;20051;-76
2020/12/14 13:18:26;;;;;;;10.35;2.70;;;14.30;99.90;;;;;;5055833;28;20039;-75
2020/12/14 13:20:52;;;;;;;11.40;2.67;;;14.30;99.90;;;;;;5054753;28;20021;-76
2020/12/14 13:23:18;;;;;;;10.23;2.35;;;14.20;99.90;;;;;;5054251;28;20724;-76
2020/12/14 13:25:45;;;;;;;5.55;2.45;;;14.10;99.90;;;;;;5055343;28;20052;-76
2020/12/14 13:28:11;;;;;;;6.90;2.70;;;14.00;99.90;;;;;;5049196;28;20467;-76
2020/12/14 13:30:37;;;;;;;5.70;2.70;;;14.00;99.90;;;;;;5054234;28;20044;-76
2020/12/14 13:33:02;;;;;;;7.30;2.90;;;14.10;99.90;;;;;;5051767;28;20033;-76
2020/12/14 13:35:29;;;;;;;11.40;3.00;;;14.10;99.90;;;;;;5054267;28;20033;-76
2020/12/14 13:37:55;;;;;;;10.55;3.22;;;14.10;99.90;;;;;;5054811;28;20037;-76
2020/12/14 13:40:21;;;;;;;9.82;2.90;;;14.10;99.90;;;;;;5055742;28;20123;-78
2020/12/14 13:42:47;;;;;;;6.68;2.75;;;14.00;99.90;;;;;;5051083;28;20384;-76
2020/12/14 13:45:12;;;;;;;5.53;2.83;;;14.00;99.90;;;;;;5056151;28;20044;-76
2020/12/14 13:47:38;;;;;;;5.82;2.70;;;13.90;99.90;;;;;;5054620;28;20031;-75
2020/12/14 13:50:04;;;;;;;6.70;2.70;;;13.90;99.90;;;;;;5051392;28;20411;-76
2020/12/14 13:52:31;;;;;;;8.30;2.83;;;14.00;99.90;;;;;;5052202;28;20028;-76
2020/12/14 14:09:10;;;;;;;11.23;3.60;;;12.50;99.90;;;;;;5104811;27;20369;-74
2020/12/14 14:11:36;;;;;;;7.82;3.50;;;12.50;99.90;;;;;;5076158;28;20054;-76
2020/12/14 14:14:01;;;;;;;10.10;3.40;;;12.70;99.90;;;;;;5074407;28;20036;-75
2020/12/14 14:16:27;;;;;;;11.10;3.70;;;12.90;99.90;;;;;;5066437;27;20136;-74
2020/12/14 14:18:53;;;;;;;13.10;4.00;;;13.20;99.90;;;;;;5051752;28;20044;-75
2020/12/14 14:21:18;;;;;;;8.38;3.30;;;13.40;99.90;;;;;;5048141;28;20115;-75
2020/12/14 14:23:44;;;;;;;13.95;4.00;;;13.50;99.90;;;;;;5052660;28;20067;-74
2020/12/14 14:26:10;;;;;;;11.90;3.75;;;13.60;99.90;;;;;;5046055;28;21027;-75
2020/12/14 14:28:35;;;;;;;10.13;3.35;;;13.70;99.90;;;;;;5051162;28;20067;-74
